Budapest, Magyarország

2016 December 05 09:33 PM (CET időzóna) (GMT +0100)
Damjanich utca | | Change Station

Elev 374 ft 47.51 °N, 19.08 °E | Updated 4 minutes ago

Mostly Cloudy
Jórészt felhős
27.0 °F
Hőérzet 27 °F
N
0.0
Szél: változó Szél: from északi
Gusts 1.2 mph

Ma
High -- | Low -- °F
--% Csapadék valószínű
Tegnapi
High -- | Low -- °F
Precip. -- hvlyk.
Légnyomás 30.42 hvlyk.
Látótávolság 1.2 mérföld
Felhők Elszórtan felhős 200 ft
Jórészt felhős 5800 ft
Hőérzet 27 °F
Harmatpont 23 °F
Páratartalom 85%
Rainfall 0.00 hvlyk.
Hóréteg vastagsága Not available.
7:15 AM 3:53 PM
Növekvő holdsarló, 34% visible
METAR LHBP 052030Z 00000KT 2000 BR SCT002 BKN058 M04/M05 Q1030 NOSIG
Légnyomás 30.42 hvlyk.
Látótávolság 1.2 mérföld
Felhők Elszórtan felhős 200 ft
Jórészt felhős 5800 ft
Hőérzet 27 °F
Harmatpont 23 °F
Páratartalom 85%
Rainfall 0.00 hvlyk.
Hóréteg vastagsága Not available.
7:15 AM 3:53 PM
Növekvő holdsarló, 34% visible
METAR LHBP 052030Z 00000KT 2000 BR SCT002 BKN058 M04/M05 Q1030 NOSIG

10-Day Weather Forecast

×

Almanac

Csillagászat

Dec. 05, 2016 Kel Nyugszik
Tényleges idő
Civil alkony
Tengerészeti alkony
Csillagászati alkony
Hold
Látható fény időtartama
A nap hossza
Tomorrow will be .
, % of the Moon is Illuminated

Today's Extremes

Country Highs Country Lows

Community

WunderPhotos

Upload Photos

1,955,859 Fotók feltöltve.

WunderBlog® & News

Nearby

A levegő minősége

  A levegő minősége AQ Index Szennyezőanyag
Not available.

Hóréteg vastagsága

Station Depth Elevation

Earthquake Activity

város Distance Mag. Time & Date
Minimum magnitude displayed is 2.5.

Coastal Water Temperatures

Hely Hőmérséklet

Stations

Közeli meteorológiai állomások

Station Location Hőm. Hőérzet Harmatpont Páratartalom Szél: Precip. Elev Frissítve Type